Terminal Aerodrome Forecast
Issued by NWS

Home | Current Version | Previous Version | Text Only | Print | Product List | Glossary On
Versions: 1 2 3 4 5 6 7 8 9 10 11 12 13 14 15 16 17 18 19 20 21 22 23 24 25 26 27 28 29 30 31 32 33 34 35 36 37 38 39 40
000
FTUS42 KMFL 190904 AAA
TAFOPF
TAF AMD
KOPF 190904Z 1909/2006 00000KT P6SM SKC
     FM191300 33004KT P6SM SKC
     FM191800 12005KT P6SM SKC
     FM200000 00000KT P6SM SKC=

USA.gov is the U.S. government's official web portal to all federal, state and local government web resources and services.